Terminal Aerodrome Forecast
Issued by NWS Sterling, VA

Current Version | Previous Version | Graphics & Text | Print | Product List | Glossary On
Versions: 1 2 3 4 5 6 7 8 9 10 11 12 13 14 15 16 17
470
FTUS41 KLWX 241129
TAFIAD
TAF
KIAD 241129Z 2412/2518 04008KT P6SM VCSH SCT025 OVC050
     FM241500 04010G18KT P6SM VCSH SCT025 OVC050
     FM241900 04010G18KT 5SM -RA BKN025 OVC050
     FM242200 04010G18KT 5SM -RA BKN015 OVC025
     FM250100 04008KT 5SM -RA BR BKN008 OVC015
     FM251500 04010G18KT 5SM -RA BR BKN008 OVC015=

USA.gov is the U.S. government's official web portal to all federal, state and local government web resources and services.